Aeroporto :
LOGIN :

Iscrizione | Disclaimer

   EN    FR    IT 

 










Sommario :    VFR   VFR Marginale   IFR   IFR Intensivo   IFR Molto Intensivo
Visibilità : 
Base nubi : 
>= 8 km
>= 3000ft
5 / 8 km
1000 / 3000 ft
1500m / 5 km
500 / 1000 ft
800 / 1500m
200 / 500 ft
< 800m
< 200 ft
Simboli :   Temporali  Nebbia  Neve Forte  Precipitazioni Forti  Vento > 20 kt
SIGMETs :   Varie  Temporali  Ghiacco  Turbolenza  Onda orograficha  Ceneri Vulcaniche







- Altitudine del aeroporto : 1470 ft


LSMD - Dubendorf Military

ULTIMO METAR :
  • 131950Z AUTO 06009KT 9999NDV FEW042 BKN053 OVC077 00/M05 Q1012 RMK

METARs OBSOLETI :
  • 131920Z AUTO 07009KT 030V090 9999NDV -SHSN FEW040 BKN054 OVC062 00/M04 Q1012 RMK
  • 131850Z AUTO 07004KT 010V120 9999NDV BKN056 OVC069 01/M04 Q1012 RMK
  • 131820Z AUTO 06005KT 020V090 9999NDV -SHRASN OVC070 00/M03 Q1012 RMK
  • 131750Z AUTO 06006KT 030V110 9999NDV -SHSN SCT035 BKN042 OVC049 01/M03 Q1012 RMK
  • 131720Z AUTO 05003KT 350V080 9999NDV FEW038 BKN047 OVC068 01/M04 Q1012 RMK

Previsioni scadute.
Nessun NOTAM noto per questo aeroporto.



MetMap, La meteo Aeronautica in un colpo d'occhio ! - Copyright ORBIFLY Dicembre 2007 - Disclaimer

ORBIFLY MET'MAP TEAM :

Programmazione e sviluppo : Alexandra Zaïnal
Concezione e sviluppo : Baudouin d'Aumeries
Co-Programmazione e sviluppo : Marc-Olivier Méhu
Supporto tecnico e logistico : Manuel Goepfert
Aiuto per la traduzione : Arnaldo La Scala

Contatto : metmap@orbifly.com




FONTI E CREDITI :

   NOAA